Time;durP1;ratioP1;P1;durP2;ratioP2;P2;SDS_P1;SDS_P2;PMS_P1;PMS_P2;Temp;Humidity;BMP_temperature;BMP_pressure;BME280_temperature;BME280_humidity;BME280_pressure;Samples;Min_cycle;Max_cycle;Signal;HPM_P1;HPM_P2
2023/08/15 00:00:02;;;;;;;7.28;6.25;;;;;;;19.33;100.00;95901.19;1022428;28;20126;-74
2023/08/15 00:00:33;;;;;;;6.93;6.05;;;;;;;19.40;100.00;95909.47;1025516;28;20026;-74
2023/08/15 00:01:03;;;;;;;8.57;5.88;;;;;;;19.39;100.00;95907.16;1026502;28;20035;-74
2023/08/15 00:01:34;;;;;;;7.40;6.00;;;;;;;19.37;100.00;95907.44;1034395;28;20531;-75
2023/08/15 00:02:04;;;;;;;8.18;5.82;;;;;;;19.31;100.00;95906.03;1034461;28;20018;-74
2023/08/15 00:02:35;;;;;;;13.15;6.25;;;;;;;19.35;100.00;95909.66;1034217;28;20538;-76
2023/08/15 00:03:05;;;;;;;8.68;6.03;;;;;;;19.31;100.00;95908.69;1032841;28;20111;-76
2023/08/15 00:03:36;;;;;;;13.27;7.10;;;;;;;19.26;100.00;95903.56;1034326;28;20120;-75
2023/08/15 00:04:06;;;;;;;9.05;6.18;;;;;;;19.33;100.00;95916.38;1028189;28;20057;-74
2023/08/15 00:04:37;;;;;;;9.43;6.47;;;;;;;19.23;100.00;95902.28;1026243;28;20031;-74
2023/08/15 00:05:07;;;;;;;9.45;6.32;;;;;;;19.26;100.00;95911.53;1026370;28;20416;-75
2023/08/15 00:05:38;;;;;;;6.97;6.25;;;;;;;19.24;100.00;95909.16;1027051;28;20052;-75
2023/08/15 00:06:08;;;;;;;6.90;6.20;;;;;;;19.28;100.00;95904.00;1038403;28;20021;-75
2023/08/15 00:06:39;;;;;;;8.57;6.22;;;;;;;19.27;100.00;95918.41;1030264;28;20034;-75
2023/08/15 00:07:09;;;;;;;7.32;6.25;;;;;;;19.27;100.00;95905.09;1026187;28;20026;-73
2023/08/15 00:07:40;;;;;;;8.38;6.80;;;;;;;19.27;100.00;95918.41;1025571;28;20023;-74
2023/08/15 00:08:10;;;;;;;8.10;5.90;;;;;;;19.26;100.00;95914.97;1022425;28;20489;-75
2023/08/15 00:08:41;;;;;;;7.00;6.13;;;;;;;19.23;100.00;95907.63;1030385;28;20074;-74
2023/08/15 00:09:11;;;;;;;9.50;6.20;;;;;;;19.22;100.00;95908.72;1034315;28;20069;-73
2023/08/15 00:09:42;;;;;;;9.25;6.68;;;;;;;19.23;100.00;95912.16;1026154;28;20832;-75
2023/08/15 00:10:12;;;;;;;9.93;6.28;;;;;;;19.20;100.00;95907.47;1022128;29;20028;-73
2023/08/15 00:10:43;;;;;;;9.20;6.22;;;;;;;19.25;100.00;95907.31;1025618;28;20058;-75
2023/08/15 00:11:13;;;;;;;10.43;6.30;;;;;;;19.26;100.00;95906.22;1025447;28;20019;-73
2023/08/15 00:11:44;;;;;;;9.20;6.18;;;;;;;19.27;100.00;95908.53;1022361;28;20038;-74
2023/08/15 00:12:14;;;;;;;10.98;6.60;;;;;;;19.28;100.00;95909.31;1026378;28;20062;-73
2023/08/15 00:12:45;;;;;;;7.60;6.80;;;;;;;19.26;100.00;95904.34;1034482;28;20869;-75
2023/08/15 00:13:15;;;;;;;7.55;6.15;;;;;;;19.22;100.00;95897.31;1030155;28;20056;-74
2023/08/15 00:13:45;;;;;;;8.73;6.05;;;;;;;19.28;100.00;95910.13;1022569;28;20597;-75
2023/08/15 00:14:16;;;;;;;7.53;5.90;;;;;;;19.28;100.00;95904.00;1026395;28;20027;-74
2023/08/15 00:14:47;;;;;;;7.65;5.85;;;;;;;19.29;100.00;95902.94;1022915;28;20030;-74
2023/08/15 00:15:18;;;;;;;6.47;5.72;;;;;;;19.23;100.00;95893.53;1023897;28;20113;-76
2023/08/15 00:15:48;;;;;;;7.25;6.10;;;;;;;19.28;100.00;95907.47;1033161;28;20088;-74
2023/08/15 00:16:18;;;;;;;8.35;6.00;;;;;;;19.23;100.00;95896.19;1030021;28;20571;-74
2023/08/15 00:16:49;;;;;;;7.00;6.13;;;;;;;19.27;100.00;95905.09;1030254;28;20452;-75
2023/08/15 00:17:19;;;;;;;8.65;5.80;;;;;;;19.29;100.00;95900.25;1026409;28;20038;-72
2023/08/15 00:17:50;;;;;;;7.80;5.68;;;;;;;19.22;100.00;95894.63;1026313;28;20677;-73
2023/08/15 00:18:20;;;;;;;11.25;6.05;;;;;;;19.24;100.00;95897.75;1025404;28;20039;-73
2023/08/15 00:18:51;;;;;;;7.05;5.90;;;;;;;19.27;100.00;95902.44;1022302;28;20133;-70
2023/08/15 00:19:21;;;;;;;6.68;5.80;;;;;;;19.27;100.00;95907.78;1018247;29;20478;-71
2023/08/15 00:19:52;;;;;;;7.15;5.68;;;;;;;19.19;100.00;95890.72;1018243;29;20478;-75
2023/08/15 00:20:22;;;;;;;8.35;5.63;;;;;;;19.24;100.00;95900.41;1025551;28;20041;-73
2023/08/15 00:20:53;;;;;;;8.32;5.50;;;;;;;19.26;100.00;95906.22;1022064;29;20533;-75
2023/08/15 00:21:23;;;;;;;9.02;5.50;;;;;;;19.24;100.00;95900.41;1022692;28;20058;-75
2023/08/15 00:21:54;;;;;;;7.97;5.35;;;;;;;19.23;100.00;95896.19;1026384;28;20074;-74
2023/08/15 00:22:24;;;;;;;9.88;5.93;;;;;;;19.22;100.00;95900.75;1030193;28;20554;-73
2023/08/15 00:22:55;;;;;;;9.52;6.50;;;;;;;19.22;100.00;95899.97;1034392;28;20026;-73
2023/08/15 00:23:25;;;;;;;8.30;6.03;;;;;;;19.21;100.00;95895.72;1033412;28;20456;-75
2023/08/15 00:23:56;;;;;;;13.75;6.03;;;;;;;19.19;100.00;95895.25;1030348;28;20504;-74
2023/08/15 00:24:26;;;;;;;8.05;5.75;;;;;;;19.20;100.00;95899.47;1026519;28;20038;-75
2023/08/15 00:24:57;;;;;;;7.78;6.78;;;;;;;19.14;100.00;95890.09;1027049;28;20477;-75
2023/08/15 00:25:27;;;;;;;7.90;6.45;;;;;;;19.19;100.00;95895.25;1031071;28;20064;-74
2023/08/15 00:25:57;;;;;;;9.73;6.97;;;;;;;19.19;100.00;95895.25;1031143;28;20030;-73
2023/08/15 00:26:28;;;;;;;8.18;6.63;;;;;;;19.18;100.00;95897.16;1034826;28;20033;-76
2023/08/15 00:26:58;;;;;;;7.35;6.63;;;;;;;19.19;100.00;95897.94;1027168;28;20027;-74
2023/08/15 00:27:29;;;;;;;9.88;7.22;;;;;;;19.18;100.00;95893.69;1018964;29;20039;-74
2023/08/15 00:27:59;;;;;;;10.27;6.97;;;;;;;19.16;100.00;95895.88;1019248;29;20038;-74
2023/08/15 00:28:30;;;;;;;10.05;7.45;;;;;;;19.11;100.00;95885.38;1021784;28;20035;-75
2023/08/15 00:29:00;;;;;;;9.63;7.35;;;;;;;19.14;100.00;95898.84;1027189;28;20101;-73
2023/08/15 00:29:31;;;;;;;12.63;7.25;;;;;;;19.15;100.00;95899.63;1031077;28;20077;-74
2023/08/15 00:30:01;;;;;;;9.60;7.13;;;;;;;19.08;100.00;95890.25;1025468;28;20034;-74
2023/08/15 00:30:33;;;;;;;10.52;7.10;;;;;;;19.13;100.00;95904.50;1026414;28;20061;-76
2023/08/15 00:31:03;;;;;;;11.13;7.63;;;;;;;19.11;100.00;95901.34;1031274;28;20034;-74
2023/08/15 00:31:33;;;;;;;9.35;7.40;;;;;;;19.11;100.00;95899.47;1031109;28;20034;-74
2023/08/15 00:32:04;;;;;;;8.60;7.10;;;;;;;19.10;100.00;95897.13;1035042;28;20026;-74
2023/08/15 00:32:35;;;;;;;10.20;7.15;;;;;;;19.07;100.00;95891.34;1026965;28;20491;-75
2023/08/15 00:33:06;;;;;;;8.55;7.45;;;;;;;19.08;100.00;95903.56;1031105;28;20026;-74
2023/08/15 00:33:36;;;;;;;11.75;8.50;;;;;;;19.07;100.00;95896.66;1022861;28;20031;-74
2023/08/15 00:34:07;;;;;;;9.20;7.85;;;;;;;19.05;100.00;95901.53;1023346;28;20524;-74
2023/08/15 00:34:37;;;;;;;9.93;8.00;;;;;;;19.03;100.00;95903.69;1023020;29;20035;-74
2023/08/15 00:35:09;;;;;;;10.93;8.13;;;;;;;18.99;100.00;95897.44;1020787;28;20038;-75
2023/08/15 00:35:41;;;;;;;10.52;7.60;;;;;;;19.01;100.00;95905.09;1035101;28;20519;-74
2023/08/15 00:36:12;;;;;;;12.73;8.93;;;;;;;18.99;100.00;95900.09;1034956;28;20046;-74
2023/08/15 00:36:43;;;;;;;11.35;8.30;;;;;;;18.99;100.00;95907.31;1035056;28;20082;-73
2023/08/15 00:37:13;;;;;;;13.10;8.00;;;;;;;18.98;100.00;95903.88;1030812;28;20038;-75
2023/08/15 00:37:43;;;;;;;12.48;8.68;;;;;;;18.98;100.00;95903.06;1027673;28;20043;-73
2023/08/15 00:38:14;;;;;;;9.05;7.78;;;;;;;18.97;100.00;95904.94;1034983;28;20479;-75
2023/08/15 00:38:44;;;;;;;10.20;7.60;;;;;;;18.93;100.00;95904.00;1030960;28;20038;-74
2023/08/15 00:39:15;;;;;;;9.38;8.10;;;;;;;18.91;100.00;95898.19;1030864;28;20566;-75
2023/08/15 00:39:45;;;;;;;13.70;8.30;;;;;;;18.95;100.00;95901.06;1031101;28;20042;-75
2023/08/15 00:40:16;;;;;;;9.57;8.07;;;;;;;18.96;100.00;95900.72;1032709;28;20026;-75
2023/08/15 00:40:46;;;;;;;11.25;7.68;;;;;;;18.95;100.00;95906.38;1030338;28;20038;-75
2023/08/15 00:41:17;;;;;;;12.02;8.27;;;;;;;18.93;100.00;95904.00;1026695;28;20081;-74
2023/08/15 00:41:47;;;;;;;9.73;7.35;;;;;;;18.90;100.00;95898.53;1022917;28;20027;-75
2023/08/15 00:42:18;;;;;;;9.80;7.70;;;;;;;18.89;100.00;95897.75;1022755;29;20172;-73
2023/08/15 00:42:48;;;;;;;9.18;7.20;;;;;;;18.89;100.00;95897.75;1030814;28;20567;-73
2023/08/15 00:43:19;;;;;;;9.20;7.68;;;;;;;18.95;100.00;95911.69;1027005;28;20027;-74
2023/08/15 00:43:49;;;;;;;12.02;7.97;;;;;;;18.88;100.00;95900.72;1026856;28;20026;-75
2023/08/15 00:44:20;;;;;;;8.00;6.90;;;;;;;18.94;100.00;95912.75;1027051;28;20027;-75
2023/08/15 00:44:50;;;;;;;9.27;7.47;;;;;;;18.89;100.00;95900.41;1027008;28;20046;-75
2023/08/15 00:45:21;;;;;;;14.63;7.53;;;;;;;18.91;100.00;95916.03;1022638;28;20030;-75
2023/08/15 00:45:51;;;;;;;14.52;7.75;;;;;;;18.90;100.00;95911.81;1022830;29;20011;-73
2023/08/15 00:46:22;;;;;;;12.25;7.50;;;;;;;18.88;100.00;95911.34;1023120;29;20031;-74
2023/08/15 00:46:52;;;;;;;12.30;7.47;;;;;;;18.88;100.00;95908.69;1026874;28;20110;-74
2023/08/15 00:47:23;;;;;;;13.77;7.72;;;;;;;18.86;100.00;95909.00;1023035;28;20023;-75
2023/08/15 00:47:53;;;;;;;10.38;7.88;;;;;;;18.80;100.00;95900.38;1019166;29;20027;-74
2023/08/15 00:48:29;;;;;;;9.93;7.15;;;;;;;18.83;100.00;95902.44;1023050;29;20393;-75
2023/08/15 00:49:00;;;;;;;14.27;7.25;;;;;;;18.78;100.00;95897.28;1034929;28;20025;-74
2023/08/15 00:49:30;;;;;;;12.30;7.63;;;;;;;18.83;100.00;95914.94;1026746;28;20087;-74
2023/08/15 00:50:01;;;;;;;10.50;7.53;;;;;;;18.84;100.00;95916.50;1027070;28;20031;-75
2023/08/15 00:50:32;;;;;;;12.48;7.70;;;;;;;18.78;100.00;95907.13;1026144;28;20057;-73
2023/08/15 00:51:02;;;;;;;8.15;6.97;;;;;;;18.80;100.00;95911.03;1022917;28;20522;-75
2023/08/15 00:51:33;;;;;;;11.07;7.10;;;;;;;18.81;100.00;95917.94;1030820;28;20943;-74
2023/08/15 00:52:03;;;;;;;10.30;7.75;;;;;;;18.78;100.00;95915.09;1030821;28;20030;-73
2023/08/15 00:52:34;;;;;;;9.68;7.72;;;;;;;18.80;100.00;95920.88;1026912;28;20419;-74
2023/08/15 00:53:04;;;;;;;12.48;7.82;;;;;;;18.82;100.00;95918.69;1027202;28;20366;-73
2023/08/15 00:53:35;;;;;;;8.40;7.53;;;;;;;18.83;100.00;95923.69;1026795;28;20642;-74
2023/08/15 00:54:06;;;;;;;10.57;7.65;;;;;;;18.79;100.00;95914.00;1030505;28;20547;-73
2023/08/15 00:54:36;;;;;;;9.30;7.68;;;;;;;18.81;100.00;95922.44;1026849;28;20031;-75
2023/08/15 00:55:07;;;;;;;8.70;7.80;;;;;;;18.82;100.00;95930.13;1024876;29;20024;-74
2023/08/15 00:55:38;;;;;;;8.73;7.50;;;;;;;18.76;100.00;95919.94;1034816;28;20036;-75
2023/08/15 00:56:08;;;;;;;10.73;7.60;;;;;;;18.81;100.00;95927.75;1027038;28;20095;-76
2023/08/15 00:56:39;;;;;;;8.93;6.90;;;;;;;18.82;100.00;95930.13;1030578;28;20022;-74
2023/08/15 00:57:10;;;;;;;9.32;7.75;;;;;;;18.82;100.00;95924.03;1030380;28;20508;-74
2023/08/15 00:57:40;;;;;;;9.80;7.38;;;;;;;18.77;100.00;95919.63;1030248;28;20042;-77
2023/08/15 00:58:11;;;;;;;8.85;7.60;;;;;;;18.76;100.00;95914.63;1025871;29;20367;-75
2023/08/15 00:58:42;;;;;;;9.07;7.63;;;;;;;18.79;100.00;95924.63;1030232;28;20050;-75
2023/08/15 00:59:12;;;;;;;11.25;6.90;;;;;;;18.80;100.00;95923.53;1033893;28;20771;-75
2023/08/15 00:59:43;;;;;;;9.20;7.03;;;;;;;18.78;100.00;95923.09;1030176;28;20034;-75
2023/08/15 01:00:14;;;;;;;9.25;7.68;;;;;;;18.77;100.00;95914.28;1030293;28;20320;-73
2023/08/15 01:00:45;;;;;;;10.57;6.97;;;;;;;18.79;100.00;95921.97;1027675;28;20023;-75
2023/08/15 01:01:16;;;;;;;8.98;7.47;;;;;;;18.74;100.00;95914.91;1030258;28;20034;-74
2023/08/15 01:01:47;;;;;;;9.50;7.03;;;;;;;18.75;100.00;95924.47;1030302;28;20042;-76
2023/08/15 01:02:18;;;;;;;10.18;7.75;;;;;;;18.70;100.00;95919.25;1031176;28;20084;-74
2023/08/15 01:02:48;;;;;;;8.27;6.68;;;;;;;18.75;100.00;95929.00;1026028;28;20022;-75
2023/08/15 01:03:19;;;;;;;17.60;7.82;;;;;;;18.75;100.00;95923.69;1027289;28;20026;-75
2023/08/15 01:03:49;;;;;;;11.05;7.05;;;;;;;18.73;100.00;95926.66;1022959;29;20043;-75
2023/08/15 01:04:19;;;;;;;11.35;7.38;;;;;;;18.71;100.00;95922.69;1022795;29;20043;-74
2023/08/15 01:04:50;;;;;;;12.52;7.53;;;;;;;18.70;100.00;95926.47;1022942;29;20034;-74
2023/08/15 01:05:21;;;;;;;12.73;7.53;;;;;;;18.68;100.00;95923.31;1023033;29;20445;-74
2023/08/15 01:05:51;;;;;;;8.82;6.85;;;;;;;18.67;100.00;95916.44;1026731;28;20023;-74
2023/08/15 01:06:22;;;;;;;9.93;7.13;;;;;;;18.70;100.00;95926.47;1027028;28;20093;-75
2023/08/15 01:06:52;;;;;;;16.40;7.70;;;;;;;18.69;100.00;95924.91;1030921;28;20617;-75
2023/08/15 01:07:23;;;;;;;18.13;7.05;;;;;;;18.67;100.00;95930.50;1022923;28;20486;-76
2023/08/15 01:07:53;;;;;;;12.18;7.15;;;;;;;18.68;100.00;95939.25;1030934;28;20046;-73
2023/08/15 01:08:24;;;;;;;14.18;6.88;;;;;;;18.70;100.00;95942.41;1030841;28;20062;-73
2023/08/15 01:08:55;;;;;;;16.02;7.93;;;;;;;18.69;100.00;95943.50;1026955;28;20019;-74
2023/08/15 01:09:25;;;;;;;12.13;6.75;;;;;;;18.70;100.00;95937.09;1026721;28;20026;-73
2023/08/15 01:09:56;;;;;;;8.65;7.10;;;;;;;18.67;100.00;95933.16;1023088;28;20034;-74
2023/08/15 01:10:26;;;;;;;10.05;7.68;;;;;;;18.72;100.00;95929.63;1026245;28;20033;-74
2023/08/15 01:10:57;;;;;;;14.30;8.20;;;;;;;18.73;100.00;95924.00;1026882;28;20026;-74
2023/08/15 01:11:30;;;;;;;10.45;8.35;;;;;;;18.76;100.00;95933.22;1029759;28;20022;-76
2023/08/15 01:12:36;;;;;;;14.77;7.63;;;;;;;18.77;100.00;95924.16;1034781;28;20033;-74
2023/08/15 01:13:26;;;;;;;10.05;7.05;;;;;;;18.77;100.00;95924.16;1034797;28;20097;-74
2023/08/15 01:13:59;;;;;;;;;;;;;;;18.77;100.00;95929.47;1038020;28;20068;-75
2023/08/15 01:14:53;;;;;;;14.63;8.05;;;;;;;18.72;100.00;95929.63;1034577;28;19906;-73
2023/08/15 01:15:26;;;;;;;9.43;6.82;;;;;;;18.71;100.00;95934.13;1034307;28;20122;-73
2023/08/15 01:15:57;;;;;;;12.25;8.13;;;;;;;18.66;100.00;95928.97;1026482;29;20023;-73
2023/08/15 01:16:32;;;;;;;9.48;7.60;;;;;;;18.69;100.00;95935.53;1028372;28;20023;-73
2023/08/15 01:17:03;;;;;;;10.82;7.63;;;;;;;18.72;100.00;95935.72;1024441;29;20015;-75
2023/08/15 01:18:15;;;;;;;10.57;8.65;;;;;;;18.78;100.00;95931.84;1018893;29;20031;-74
2023/08/15 01:18:49;;;;;;;12.57;7.57;;;;;;;18.79;100.00;95920.09;1022063;28;20106;-75
2023/08/15 01:19:29;;;;;;;9.85;7.55;;;;;;;18.85;100.00;95926.06;1028839;28;20607;-74
2023/08/15 01:20:01;;;;;;;;;;;;;;;18.88;100.00;95922.78;1031191;28;20054;-74
2023/08/15 01:20:33;;;;;;;18.23;8.35;;;;;;;18.84;100.00;95922.59;1030312;28;19917;-75
2023/08/15 01:21:04;;;;;;;21.85;8.15;;;;;;;18.83;100.00;95921.03;1030820;28;20019;-73
2023/08/15 01:21:39;;;;;;;11.43;7.32;;;;;;;18.86;100.00;95919.66;1024708;28;20074;-74
2023/08/15 01:22:19;;;;;;;13.50;7.10;;;;;;;18.85;100.00;95928.72;1022894;29;20102;-73
2023/08/15 01:22:51;;;;;;;8.73;7.53;;;;;;;18.75;100.00;95908.53;1030769;28;20086;-75
2023/08/15 01:23:24;;;;;;;11.68;7.47;;;;;;;18.74;100.00;95917.56;1033440;28;20033;-75
2023/08/15 01:23:55;;;;;;;10.23;8.05;;;;;;;18.74;100.00;95916.78;1030921;28;20813;-75
2023/08/15 01:24:25;;;;;;;10.10;7.45;;;;;;;18.78;100.00;95915.09;1034985;28;20033;-75
2023/08/15 01:24:56;;;;;;;8.60;7.70;;;;;;;18.84;100.00;95917.28;1038656;28;20403;-75
2023/08/15 01:25:27;;;;;;;11.00;7.13;;;;;;;18.82;100.00;95919.47;1030899;28;20041;-73
2023/08/15 01:25:58;;;;;;;8.43;7.63;;;;;;;18.60;100.00;95879.69;1030873;28;20559;-75
2023/08/15 01:26:28;;;;;;;11.65;8.07;;;;;;;18.75;100.00;95908.53;1022991;28;20062;-75
2023/08/15 01:26:58;;;;;;;19.50;8.65;;;;;;;18.82;100.00;95913.38;1027034;28;20062;-74
2023/08/15 01:27:29;;;;;;;16.23;7.20;;;;;;;18.82;100.00;95918.69;1026907;28;20605;-75
2023/08/15 01:27:59;;;;;;;9.10;7.50;;;;;;;18.80;100.00;95916.34;1031111;28;20080;-73
2023/08/15 01:28:31;;;;;;;10.10;7.53;;;;;;;18.83;100.00;95921.03;1030645;28;20033;-75
2023/08/15 01:29:02;;;;;;;10.10;8.13;;;;;;;18.81;100.00;95911.81;1027170;28;20030;-73
2023/08/15 01:29:32;;;;;;;12.57;7.70;;;;;;;18.80;100.00;95913.69;1030896;28;20436;-75
2023/08/15 01:30:03;;;;;;;10.55;7.50;;;;;;;18.84;100.00;95916.50;1031115;28;20030;-73
2023/08/15 01:30:34;;;;;;;10.05;8.10;;;;;;;18.79;100.00;95914.78;1034238;28;20037;-74
2023/08/15 01:31:22;;;;;;;12.35;8.20;;;;;;;18.84;100.00;95917.28;1026627;28;20026;-74
2023/08/15 01:32:02;;;;;;;10.35;7.38;;;;;;;18.88;100.00;95919.31;1026385;28;20042;-74
2023/08/15 01:32:56;;;;;;;12.52;7.78;;;;;;;18.92;100.00;95921.06;1022887;29;20404;-74
2023/08/15 01:33:30;;;;;;;10.07;8.10;;;;;;;18.89;100.00;95908.38;1021482;28;20043;-74
2023/08/15 01:34:25;;;;;;;14.68;8.23;;;;;;;18.97;100.00;95920.13;1030978;28;20977;-74
2023/08/15 01:35:35;;;;;;;8.98;7.40;;;;;;;19.00;100.00;95912.28;1034932;28;20531;-73
2023/08/15 01:36:28;;;;;;;14.80;7.97;;;;;;;19.00;100.00;95920.28;1034301;28;20022;-73
2023/08/15 01:37:08;;;;;;;9.35;7.55;;;;;;;18.98;100.00;95919.81;1030674;28;20045;-73
2023/08/15 01:37:40;;;;;;;10.18;8.63;;;;;;;18.93;100.00;95913.88;1035082;28;20025;-74
2023/08/15 01:38:13;;;;;;;9.57;7.93;;;;;;;18.96;100.00;95919.34;1034884;28;20040;-74
2023/08/15 01:38:48;;;;;;;12.32;8.38;;;;;;;18.95;100.00;95914.34;1030766;28;20073;-74
2023/08/15 01:39:23;;;;;;;11.80;7.70;;;;;;;18.98;100.00;95917.16;1026854;28;20019;-73
2023/08/15 01:39:54;;;;;;;9.90;8.43;;;;;;;18.97;100.00;95915.56;1030786;28;20476;-75
2023/08/15 01:40:25;;;;;;;13.45;8.27;;;;;;;18.90;100.00;95911.81;1030047;28;20021;-74
2023/08/15 01:40:55;;;;;;;10.35;8.27;;;;;;;18.90;100.00;95904.63;1030716;28;20663;-75
2023/08/15 01:41:26;;;;;;;11.65;8.43;;;;;;;18.89;100.00;95905.72;1026713;28;20077;-75
2023/08/15 01:42:00;;;;;;;11.77;8.35;;;;;;;18.95;100.00;95917.00;1034499;28;20052;-76
2023/08/15 01:42:30;;;;;;;9.30;7.85;;;;;;;18.94;100.00;95910.88;1030695;28;20023;-74
2023/08/15 01:43:02;;;;;;;14.13;8.35;;;;;;;18.90;100.00;95899.31;1022920;29;20016;-74
2023/08/15 01:43:32;;;;;;;16.08;8.10;;;;;;;18.92;100.00;95905.09;1022558;28;20110;-75
2023/08/15 01:44:03;;;;;;;13.75;7.80;;;;;;;18.92;100.00;95907.00;1022830;29;20102;-74
2023/08/15 01:44:34;;;;;;;11.13;7.82;;;;;;;18.94;100.00;95915.41;1026727;28;20035;-72
2023/08/15 01:45:05;;;;;;;9.73;8.20;;;;;;;18.86;100.00;95895.72;1022689;29;20011;-75
2023/08/15 01:45:35;;;;;;;13.15;7.78;;;;;;;18.82;100.00;95886.78;1030408;28;20120;-73
2023/08/15 01:46:06;;;;;;;9.48;7.88;;;;;;;18.88;100.00;95901.50;1026748;28;20090;-74
2023/08/15 01:46:37;;;;;;;8.60;7.45;;;;;;;18.84;100.00;95895.22;1018634;29;20023;-71
2023/08/15 01:47:07;;;;;;;8.93;6.88;;;;;;;18.89;100.00;95907.59;1018763;29;20008;-73
2023/08/15 01:47:38;;;;;;;13.65;7.55;;;;;;;18.84;100.00;95900.53;1022768;29;20019;-73
2023/08/15 01:48:08;;;;;;;10.82;7.63;;;;;;;18.78;100.00;95889.28;1034690;28;20017;-75
2023/08/15 01:48:40;;;;;;;8.82;7.88;;;;;;;18.81;100.00;95901.16;1030640;28;20081;-74
2023/08/15 01:49:10;;;;;;;8.27;7.03;;;;;;;18.75;100.00;95892.56;1026848;28;20130;-73
2023/08/15 01:49:41;;;;;;;11.10;7.78;;;;;;;18.75;100.00;95889.13;1030863;28;20295;-75
2023/08/15 01:50:11;;;;;;;13.77;8.38;;;;;;;18.84;100.00;95911.19;1026947;28;20049;-74
2023/08/15 01:50:42;;;;;;;13.02;7.57;;;;;;;18.83;100.00;95909.63;1026539;28;20014;-74
2023/08/15 01:51:12;;;;;;;10.20;7.50;;;;;;;18.83;100.00;95909.63;1026815;28;20368;-74
2023/08/15 01:51:43;;;;;;;11.70;8.20;;;;;;;18.84;100.00;95914.63;1027095;28;20110;-73
2023/08/15 01:52:13;;;;;;;14.02;8.60;;;;;;;18.79;100.00;95900.72;1034684;28;20550;-74
2023/08/15 01:52:44;;;;;;;11.77;8.20;;;;;;;18.83;100.00;95904.31;1031101;28;20111;-73
2023/08/15 01:53:14;;;;;;;12.55;8.10;;;;;;;18.84;100.00;95908.53;1030836;28;20026;-74
2023/08/15 01:53:45;;;;;;;10.02;7.93;;;;;;;18.74;100.00;95896.31;1026647;28;20571;-74
2023/08/15 01:54:15;;;;;;;12.10;8.38;;;;;;;18.86;100.00;95911.66;1022777;29;20055;-74
2023/08/15 01:54:46;;;;;;;11.98;8.52;;;;;;;18.78;100.00;95894.63;1022872;29;20023;-73
2023/08/15 01:55:16;;;;;;;12.13;8.35;;;;;;;18.90;100.00;95909.94;1019092;28;20031;-73
2023/08/15 01:55:47;;;;;;;10.80;8.32;;;;;;;18.89;100.00;95908.38;1026741;28;20365;-75
2023/08/15 01:56:17;;;;;;;9.75;8.15;;;;;;;18.83;100.00;95897.09;1030629;28;20045;-73
2023/08/15 01:56:48;;;;;;;11.38;8.55;;;;;;;18.84;100.00;95903.22;1026722;28;20034;-74
2023/08/15 01:57:18;;;;;;;8.65;7.50;;;;;;;18.86;100.00;95909.00;1026649;28;20031;-75
2023/08/15 01:57:49;;;;;;;9.35;7.95;;;;;;;18.89;100.00;95916.38;1026712;28;20022;-73
2023/08/15 01:58:19;;;;;;;11.68;8.07;;;;;;;18.82;100.00;95900.09;1022719;29;20086;-74
2023/08/15 01:58:50;;;;;;;9.75;8.20;;;;;;;18.86;100.00;95897.59;1018639;29;20027;-74
2023/08/15 01:59:20;;;;;;;9.25;8.35;;;;;;;18.89;100.00;95908.38;1026755;28;20039;-75
2023/08/15 01:59:51;;;;;;;9.02;8.07;;;;;;;18.91;100.00;95914.16;1018699;29;20032;-74
2023/08/15 02:00:21;;;;;;;9.27;7.82;;;;;;;18.91;100.00;95908.84;1018337;29;20051;-76
2023/08/15 02:00:52;;;;;;;10.48;8.07;;;;;;;18.93;100.00;95914.66;1018457;29;20055;-76
2023/08/15 02:01:22;;;;;;;10.48;8.00;;;;;;;18.87;100.00;95904.47;1018998;28;20038;-73
2023/08/15 02:01:52;;;;;;;9.70;8.60;;;;;;;18.92;100.00;95909.66;1026712;28;20042;-76
2023/08/15 02:02:23;;;;;;;9.48;8.40;;;;;;;18.83;100.00;95901.66;1022559;28;20086;-73
2023/08/15 02:02:53;;;;;;;10.57;7.65;;;;;;;18.91;100.00;95914.16;1026724;28;20112;-74
2023/08/15 02:03:25;;;;;;;10.32;8.40;;;;;;;18.91;100.00;95908.84;1026728;28;20034;-75
2023/08/15 02:03:56;;;;;;;9.95;8.10;;;;;;;18.83;100.00;95899.75;1030781;28;20576;-74
2023/08/15 02:04:26;;;;;;;9.50;8.32;;;;;;;18.87;100.00;95899.94;1026584;28;20031;-76
2023/08/15 02:05:01;;;;;;;10.57;8.35;;;;;;;18.97;100.00;95909.47;1022734;29;20086;-73
2023/08/15 02:05:32;;;;;;;8.85;7.93;;;;;;;18.99;100.00;95913.41;1022692;29;20098;-75
2023/08/15 02:06:03;;;;;;;11.20;8.13;;;;;;;18.98;100.00;95911.84;1031986;28;20022;-76
2023/08/15 02:06:33;;;;;;;9.38;8.30;;;;;;;18.98;100.00;95909.19;1037911;28;20033;-74
2023/08/15 02:07:04;;;;;;;10.48;8.73;;;;;;;18.82;100.00;95887.56;1034836;28;20013;-74
2023/08/15 02:07:34;;;;;;;10.40;7.93;;;;;;;19.00;100.00;95906.97;1034558;28;20033;-74
2023/08/15 02:08:05;;;;;;;10.80;8.13;;;;;;;19.00;100.00;95912.28;1030658;28;20459;-76
2023/08/15 02:08:35;;;;;;;9.93;8.00;;;;;;;18.99;100.00;95913.41;1030669;28;20431;-75
2023/08/15 02:09:06;;;;;;;10.18;7.53;;;;;;;18.99;100.00;95908.09;1030601;28;20056;-75
2023/08/15 02:09:36;;;;;;;10.50;8.35;;;;;;;18.98;100.00;95909.19;1028009;28;20035;-75
2023/08/15 02:10:07;;;;;;;8.68;7.45;;;;;;;18.97;100.00;95912.13;1030671;28;20452;-73
2023/08/15 02:10:38;;;;;;;9.85;7.53;;;;;;;19.00;100.00;95911.53;1026061;28;20400;-74
2023/08/15 02:11:08;;;;;;;11.23;7.82;;;;;;;18.99;100.00;95913.41;1026415;28;20636;-74
2023/08/15 02:11:39;;;;;;;10.32;7.70;;;;;;;18.93;100.00;95898.69;1026721;28;20026;-74
2023/08/15 02:12:09;;;;;;;11.05;7.50;;;;;;;19.02;100.00;95906.69;1034598;28;20022;-75
2023/08/15 02:12:40;;;;;;;8.75;7.28;;;;;;;19.01;100.00;95911.22;1030800;28;20022;-75
2023/08/15 02:13:10;;;;;;;11.63;7.18;;;;;;;19.01;100.00;95905.91;1025154;28;20031;-75
2023/08/15 02:13:41;;;;;;;9.13;7.43;;;;;;;18.96;100.00;95903.38;1022834;28;20027;-74
2023/08/15 02:14:11;;;;;;;9.23;7.93;;;;;;;19.06;100.00;95907.63;1026797;28;20462;-73
2023/08/15 02:14:42;;;;;;;8.57;6.75;;;;;;;19.05;100.00;95906.84;1026738;28;20030;-76
2023/08/15 02:15:12;;;;;;;7.70;6.82;;;;;;;19.04;100.00;95910.56;1022712;28;20020;-72
2023/08/15 02:15:43;;;;;;;9.00;7.47;;;;;;;19.06;100.00;95910.28;1026648;28;20050;-75
2023/08/15 02:16:13;;;;;;;10.13;7.43;;;;;;;19.06;100.00;95900.41;1022549;29;20023;-74
2023/08/15 02:16:44;;;;;;;7.55;6.85;;;;;;;19.07;100.00;95903.84;1022562;28;20008;-73
2023/08/15 02:17:14;;;;;;;7.18;6.47;;;;;;;19.07;100.00;95904.63;1022592;29;20031;-74
2023/08/15 02:17:45;;;;;;;8.48;7.03;;;;;;;19.06;100.00;95899.63;1022713;28;20018;-73
2023/08/15 02:18:15;;;;;;;9.50;7.05;;;;;;;19.07;100.00;95899.31;1026714;28;20027;-73
2023/08/15 02:18:46;;;;;;;10.68;7.05;;;;;;;19.06;100.00;95900.41;1030726;28;20014;-75
2023/08/15 02:19:16;;;;;;;8.88;7.10;;;;;;;19.07;100.00;95907.28;1026629;28;20350;-74
2023/08/15 02:19:47;;;;;;;13.05;6.93;;;;;;;19.05;100.00;95895.44;1026643;28;20019;-74
2023/08/15 02:20:17;;;;;;;9.45;7.07;;;;;;;19.07;100.00;95899.31;1026771;28;20469;-71
2023/08/15 02:20:48;;;;;;;7.93;6.63;;;;;;;19.08;100.00;95894.81;1025938;28;20768;-75
2023/08/15 02:21:18;;;;;;;9.90;7.50;;;;;;;19.08;100.00;95895.56;1030699;28;20094;-73
2023/08/15 02:21:49;;;;;;;8.15;6.95;;;;;;;19.07;100.00;95894.00;1022999;28;20015;-72
2023/08/15 02:22:19;;;;;;;10.38;7.35;;;;;;;19.05;100.00;95890.09;1022994;29;20015;-73
2023/08/15 02:22:50;;;;;;;7.65;6.85;;;;;;;19.07;100.00;95899.31;1021140;29;20019;-73
2023/08/15 02:23:20;;;;;;;11.07;6.95;;;;;;;19.09;100.00;95899.00;1021439;28;20462;-74
2023/08/15 02:23:51;;;;;;;9.40;6.55;;;;;;;19.04;100.00;95888.53;1035438;28;20121;-73
2023/08/15 02:24:21;;;;;;;8.88;6.85;;;;;;;19.01;100.00;95881.97;1035230;28;20025;-72
2023/08/15 02:24:52;;;;;;;9.07;6.38;;;;;;;19.10;100.00;95891.81;1034786;28;20018;-75
2023/08/15 02:25:22;;;;;;;7.43;6.13;;;;;;;19.11;100.00;95888.06;1030899;28;20472;-75
2023/08/15 02:25:53;;;;;;;7.35;6.38;;;;;;;19.11;100.00;95893.38;1026824;28;20103;-72
2023/08/15 02:26:23;;;;;;;9.00;7.05;;;;;;;19.10;100.00;95889.16;1031202;28;20068;-72
2023/08/15 02:26:54;;;;;;;6.95;6.25;;;;;;;19.12;100.00;95889.63;1031086;28;20029;-73